sensor_id;sensor_type;location;lat;lon;timestamp;temperature;humidity
9215;DHT22;4642;51.364;6.788;2023-05-07T00:02:07;14.10;99.90
9215;DHT22;4642;51.364;6.788;2023-05-07T00:04:32;14.30;99.90
9215;DHT22;4642;51.364;6.788;2023-05-07T00:07:02;14.20;99.90
9215;DHT22;4642;51.364;6.788;2023-05-07T00:09:28;14.20;99.90
9215;DHT22;4642;51.364;6.788;2023-05-07T00:11:53;14.20;99.90
9215;DHT22;4642;51.364;6.788;2023-05-07T00:14:19;14.10;99.90
9215;DHT22;4642;51.364;6.788;2023-05-07T00:16:45;14.20;99.90
9215;DHT22;4642;51.364;6.788;2023-05-07T00:19:10;14.20;99.90
9215;DHT22;4642;51.364;6.788;2023-05-07T00:21:36;14.20;99.90
9215;DHT22;4642;51.364;6.788;2023-05-07T00:24:01;14.10;99.90
9215;DHT22;4642;51.364;6.788;2023-05-07T00:26:27;14.20;99.90
9215;DHT22;4642;51.364;6.788;2023-05-07T00:28:52;14.10;99.90
9215;DHT22;4642;51.364;6.788;2023-05-07T00:31:18;14.10;99.90
9215;DHT22;4642;51.364;6.788;2023-05-07T00:33:43;14.10;99.90
9215;DHT22;4642;51.364;6.788;2023-05-07T00:36:09;14.10;99.90
9215;DHT22;4642;51.364;6.788;2023-05-07T00:38:35;14.00;99.90
9215;DHT22;4642;51.364;6.788;2023-05-07T00:41:00;14.10;99.90
9215;DHT22;4642;51.364;6.788;2023-05-07T00:43:27;14.00;99.90
9215;DHT22;4642;51.364;6.788;2023-05-07T00:45:52;14.00;99.90
9215;DHT22;4642;51.364;6.788;2023-05-07T00:48:18;14.00;99.90
9215;DHT22;4642;51.364;6.788;2023-05-07T00:50:44;14.10;99.90
9215;DHT22;4642;51.364;6.788;2023-05-07T00:53:11;14.00;99.90
9215;DHT22;4642;51.364;6.788;2023-05-07T00:55:37;13.90;99.90
9215;DHT22;4642;51.364;6.788;2023-05-07T00:58:03;13.90;99.90
9215;DHT22;4642;51.364;6.788;2023-05-07T01:00:28;13.80;99.90
9215;DHT22;4642;51.364;6.788;2023-05-07T01:02:54;13.80;99.90
9215;DHT22;4642;51.364;6.788;2023-05-07T01:05:20;13.80;99.90
9215;DHT22;4642;51.364;6.788;2023-05-07T01:07:46;13.70;99.90
9215;DHT22;4642;51.364;6.788;2023-05-07T01:10:12;13.60;99.90
9215;DHT22;4642;51.364;6.788;2023-05-07T01:12:40;13.60;99.90
9215;DHT22;4642;51.364;6.788;2023-05-07T01:15:06;13.60;99.90
9215;DHT22;4642;51.364;6.788;2023-05-07T01:17:38;13.60;99.90
9215;DHT22;4642;51.364;6.788;2023-05-07T01:20:05;13.60;99.90
9215;DHT22;4642;51.364;6.788;2023-05-07T01:22:34;13.60;99.90
9215;DHT22;4642;51.364;6.788;2023-05-07T01:25:04;13.60;99.90
9215;DHT22;4642;51.364;6.788;2023-05-07T01:27:30;13.50;99.90
9215;DHT22;4642;51.364;6.788;2023-05-07T01:29:56;13.50;99.90
9215;DHT22;4642;51.364;6.788;2023-05-07T01:32:33;13.50;99.90
9215;DHT22;4642;51.364;6.788;2023-05-07T01:35:02;13.50;99.90
9215;DHT22;4642;51.364;6.788;2023-05-07T01:37:30;13.50;99.90
9215;DHT22;4642;51.364;6.788;2023-05-07T01:39:56;13.50;99.90
9215;DHT22;4642;51.364;6.788;2023-05-07T01:42:22;13.50;99.90
9215;DHT22;4642;51.364;6.788;2023-05-07T01:44:48;13.50;99.90
9215;DHT22;4642;51.364;6.788;2023-05-07T01:47:14;13.50;99.90
9215;DHT22;4642;51.364;6.788;2023-05-07T01:49:40;13.50;99.90
9215;DHT22;4642;51.364;6.788;2023-05-07T01:52:07;13.40;99.90
9215;DHT22;4642;51.364;6.788;2023-05-07T01:54:33;13.40;99.90
9215;DHT22;4642;51.364;6.788;2023-05-07T01:56:59;13.40;99.90
9215;DHT22;4642;51.364;6.788;2023-05-07T01:59:25;13.40;99.90
9215;DHT22;4642;51.364;6.788;2023-05-07T02:01:50;13.40;99.90
9215;DHT22;4642;51.364;6.788;2023-05-07T02:04:17;13.40;99.90
9215;DHT22;4642;51.364;6.788;2023-05-07T02:06:42;13.40;99.90
9215;DHT22;4642;51.364;6.788;2023-05-07T02:09:08;13.40;99.90
9215;DHT22;4642;51.364;6.788;2023-05-07T02:11:34;13.40;99.90
9215;DHT22;4642;51.364;6.788;2023-05-07T02:13:59;13.30;99.90
9215;DHT22;4642;51.364;6.788;2023-05-07T02:16:25;13.40;99.90
9215;DHT22;4642;51.364;6.788;2023-05-07T02:18:51;13.30;99.90
9215;DHT22;4642;51.364;6.788;2023-05-07T02:21:16;13.30;99.90
9215;DHT22;4642;51.364;6.788;2023-05-07T02:23:42;13.30;99.90
9215;DHT22;4642;51.364;6.788;2023-05-07T02:26:07;13.30;99.90
9215;DHT22;4642;51.364;6.788;2023-05-07T02:28:33;13.30;99.90
9215;DHT22;4642;51.364;6.788;2023-05-07T02:31:02;13.30;99.90
9215;DHT22;4642;51.364;6.788;2023-05-07T02:33:28;13.30;99.90
9215;DHT22;4642;51.364;6.788;2023-05-07T02:35:53;13.20;99.90
9215;DHT22;4642;51.364;6.788;2023-05-07T02:38:19;13.20;99.90
9215;DHT22;4642;51.364;6.788;2023-05-07T02:40:44;13.20;99.90
9215;DHT22;4642;51.364;6.788;2023-05-07T02:43:10;13.20;99.90
9215;DHT22;4642;51.364;6.788;2023-05-07T02:45:35;13.10;99.90
9215;DHT22;4642;51.364;6.788;2023-05-07T02:48:04;13.10;99.90
9215;DHT22;4642;51.364;6.788;2023-05-07T02:50:30;13.10;99.90
9215;DHT22;4642;51.364;6.788;2023-05-07T02:52:57;13.10;99.90
9215;DHT22;4642;51.364;6.788;2023-05-07T02:55:23;13.10;99.90
9215;DHT22;4642;51.364;6.788;2023-05-07T02:57:49;13.00;99.90
9215;DHT22;4642;51.364;6.788;2023-05-07T03:00:16;13.00;99.90
9215;DHT22;4642;51.364;6.788;2023-05-07T03:02:43;13.00;99.90
9215;DHT22;4642;51.364;6.788;2023-05-07T03:05:09;13.00;99.90
9215;DHT22;4642;51.364;6.788;2023-05-07T03:07:35;13.00;99.90
9215;DHT22;4642;51.364;6.788;2023-05-07T03:10:01;13.00;99.90
9215;DHT22;4642;51.364;6.788;2023-05-07T03:12:26;13.00;99.90
9215;DHT22;4642;51.364;6.788;2023-05-07T03:14:52;12.90;99.90
9215;DHT22;4642;51.364;6.788;2023-05-07T03:17:17;12.90;99.90
9215;DHT22;4642;51.364;6.788;2023-05-07T03:19:43;12.90;99.90
9215;DHT22;4642;51.364;6.788;2023-05-07T03:22:08;12.90;99.90
9215;DHT22;4642;51.364;6.788;2023-05-07T03:24:34;12.90;99.90
9215;DHT22;4642;51.364;6.788;2023-05-07T03:27:00;12.90;99.90
9215;DHT22;4642;51.364;6.788;2023-05-07T03:29:26;12.90;99.90
9215;DHT22;4642;51.364;6.788;2023-05-07T03:31:52;12.90;99.90
9215;DHT22;4642;51.364;6.788;2023-05-07T03:34:17;12.90;99.90
9215;DHT22;4642;51.364;6.788;2023-05-07T03:36:50;12.90;99.90
9215;DHT22;4642;51.364;6.788;2023-05-07T03:39:16;12.90;99.90
9215;DHT22;4642;51.364;6.788;2023-05-07T03:41:41;12.90;99.90
9215;DHT22;4642;51.364;6.788;2023-05-07T03:44:07;12.90;99.90
9215;DHT22;4642;51.364;6.788;2023-05-07T03:46:33;12.80;99.90
9215;DHT22;4642;51.364;6.788;2023-05-07T03:48:58;12.80;99.90
9215;DHT22;4642;51.364;6.788;2023-05-07T03:51:24;12.80;99.90
9215;DHT22;4642;51.364;6.788;2023-05-07T03:53:50;12.80;99.90
9215;DHT22;4642;51.364;6.788;2023-05-07T03:56:18;12.80;99.90
9215;DHT22;4642;51.364;6.788;2023-05-07T03:58:44;12.80;99.90
9215;DHT22;4642;51.364;6.788;2023-05-07T04:01:09;12.70;99.90
9215;DHT22;4642;51.364;6.788;2023-05-07T04:03:35;12.70;99.90
9215;DHT22;4642;51.364;6.788;2023-05-07T04:06:01;12.70;99.90
9215;DHT22;4642;51.364;6.788;2023-05-07T04:08:26;12.70;99.90
9215;DHT22;4642;51.364;6.788;2023-05-07T04:10:56;12.70;99.90
9215;DHT22;4642;51.364;6.788;2023-05-07T04:13:21;12.70;99.90
9215;DHT22;4642;51.364;6.788;2023-05-07T04:15:47;12.80;99.90
9215;DHT22;4642;51.364;6.788;2023-05-07T04:18:14;12.80;99.90
9215;DHT22;4642;51.364;6.788;2023-05-07T04:20:40;12.70;99.90
9215;DHT22;4642;51.364;6.788;2023-05-07T04:23:05;12.80;99.90
9215;DHT22;4642;51.364;6.788;2023-05-07T04:25:31;12.70;99.90
9215;DHT22;4642;51.364;6.788;2023-05-07T04:27:56;12.80;99.90
9215;DHT22;4642;51.364;6.788;2023-05-07T04:30:22;12.80;99.90
9215;DHT22;4642;51.364;6.788;2023-05-07T04:32:47;12.80;99.90
9215;DHT22;4642;51.364;6.788;2023-05-07T04:35:13;12.80;99.90
9215;DHT22;4642;51.364;6.788;2023-05-07T04:37:39;12.80;99.90
9215;DHT22;4642;51.364;6.788;2023-05-07T04:40:06;12.80;99.90
9215;DHT22;4642;51.364;6.788;2023-05-07T04:42:32;12.80;99.90
9215;DHT22;4642;51.364;6.788;2023-05-07T04:44:57;12.80;99.90
9215;DHT22;4642;51.364;6.788;2023-05-07T04:47:23;12.80;99.90
9215;DHT22;4642;51.364;6.788;2023-05-07T04:49:48;12.80;99.90
9215;DHT22;4642;51.364;6.788;2023-05-07T04:52:14;12.90;99.90
9215;DHT22;4642;51.364;6.788;2023-05-07T04:54:40;12.90;99.90
9215;DHT22;4642;51.364;6.788;2023-05-07T04:57:06;12.90;99.90
9215;DHT22;4642;51.364;6.788;2023-05-07T04:59:32;13.00;99.90
9215;DHT22;4642;51.364;6.788;2023-05-07T05:01:58;12.90;99.90
9215;DHT22;4642;51.364;6.788;2023-05-07T05:04:23;13.00;99.90
9215;DHT22;4642;51.364;6.788;2023-05-07T05:06:49;13.00;99.90
9215;DHT22;4642;51.364;6.788;2023-05-07T05:09:15;13.00;99.90
9215;DHT22;4642;51.364;6.788;2023-05-07T05:11:41;13.00;99.90
9215;DHT22;4642;51.364;6.788;2023-05-07T05:14:07;13.00;99.90
9215;DHT22;4642;51.364;6.788;2023-05-07T05:16:32;13.00;99.90
9215;DHT22;4642;51.364;6.788;2023-05-07T05:18:58;13.10;99.90
9215;DHT22;4642;51.364;6.788;2023-05-07T05:21:24;13.10;99.90
9215;DHT22;4642;51.364;6.788;2023-05-07T05:23:50;13.10;99.90
9215;DHT22;4642;51.364;6.788;2023-05-07T05:26:15;13.10;99.90
9215;DHT22;4642;51.364;6.788;2023-05-07T05:28:41;13.20;99.90
9215;DHT22;4642;51.364;6.788;2023-05-07T05:31:07;13.20;99.90
9215;DHT22;4642;51.364;6.788;2023-05-07T05:33:32;13.30;99.90
9215;DHT22;4642;51.364;6.788;2023-05-07T05:35:58;13.30;99.90
9215;DHT22;4642;51.364;6.788;2023-05-07T05:38:23;13.30;99.90
9215;DHT22;4642;51.364;6.788;2023-05-07T05:40:49;13.30;99.90
9215;DHT22;4642;51.364;6.788;2023-05-07T05:43:14;13.40;99.90
9215;DHT22;4642;51.364;6.788;2023-05-07T05:45:40;13.40;99.90
9215;DHT22;4642;51.364;6.788;2023-05-07T05:48:05;13.50;99.90
9215;DHT22;4642;51.364;6.788;2023-05-07T05:50:31;13.50;99.90
9215;DHT22;4642;51.364;6.788;2023-05-07T05:52:56;13.50;99.90
9215;DHT22;4642;51.364;6.788;2023-05-07T05:55:23;13.70;99.90
9215;DHT22;4642;51.364;6.788;2023-05-07T05:57:49;13.70;99.90
9215;DHT22;4642;51.364;6.788;2023-05-07T06:00:15;13.80;99.90
9215;DHT22;4642;51.364;6.788;2023-05-07T06:02:41;13.80;99.90
9215;DHT22;4642;51.364;6.788;2023-05-07T06:05:08;13.90;99.90
9215;DHT22;4642;51.364;6.788;2023-05-07T06:07:33;14.00;99.90
9215;DHT22;4642;51.364;6.788;2023-05-07T06:10:00;14.10;99.90
9215;DHT22;4642;51.364;6.788;2023-05-07T06:12:26;14.10;99.90
9215;DHT22;4642;51.364;6.788;2023-05-07T06:14:51;14.20;99.90
9215;DHT22;4642;51.364;6.788;2023-05-07T06:17:17;14.30;99.90
9215;DHT22;4642;51.364;6.788;2023-05-07T06:19:43;14.40;99.90
9215;DHT22;4642;51.364;6.788;2023-05-07T06:22:08;14.40;99.90
9215;DHT22;4642;51.364;6.788;2023-05-07T06:24:34;14.50;99.90
9215;DHT22;4642;51.364;6.788;2023-05-07T06:27:00;14.50;99.90
9215;DHT22;4642;51.364;6.788;2023-05-07T06:29:26;14.60;99.90
9215;DHT22;4642;51.364;6.788;2023-05-07T06:31:54;14.60;99.90
9215;DHT22;4642;51.364;6.788;2023-05-07T06:34:20;14.60;99.90
9215;DHT22;4642;51.364;6.788;2023-05-07T06:36:45;14.70;99.90
9215;DHT22;4642;51.364;6.788;2023-05-07T06:39:11;14.70;99.90
9215;DHT22;4642;51.364;6.788;2023-05-07T06:41:36;14.80;99.90
9215;DHT22;4642;51.364;6.788;2023-05-07T06:44:02;14.90;99.90
9215;DHT22;4642;51.364;6.788;2023-05-07T06:46:28;14.90;99.90
9215;DHT22;4642;51.364;6.788;2023-05-07T06:48:54;15.00;99.90
9215;DHT22;4642;51.364;6.788;2023-05-07T06:51:19;15.00;99.90
9215;DHT22;4642;51.364;6.788;2023-05-07T06:53:45;15.10;99.90
9215;DHT22;4642;51.364;6.788;2023-05-07T06:56:10;15.20;99.90
9215;DHT22;4642;51.364;6.788;2023-05-07T06:58:37;15.30;99.90
9215;DHT22;4642;51.364;6.788;2023-05-07T07:01:02;15.20;99.90
9215;DHT22;4642;51.364;6.788;2023-05-07T07:03:28;15.40;99.90
9215;DHT22;4642;51.364;6.788;2023-05-07T07:05:54;15.40;99.90
9215;DHT22;4642;51.364;6.788;2023-05-07T07:08:21;15.40;99.90
9215;DHT22;4642;51.364;6.788;2023-05-07T07:10:47;15.50;99.90
9215;DHT22;4642;51.364;6.788;2023-05-07T07:13:13;15.60;99.90
9215;DHT22;4642;51.364;6.788;2023-05-07T07:15:39;15.60;99.90
9215;DHT22;4642;51.364;6.788;2023-05-07T07:18:05;15.70;99.90
9215;DHT22;4642;51.364;6.788;2023-05-07T07:20:31;15.70;99.90
9215;DHT22;4642;51.364;6.788;2023-05-07T07:22:56;15.70;99.90
9215;DHT22;4642;51.364;6.788;2023-05-07T07:25:22;15.80;99.90
9215;DHT22;4642;51.364;6.788;2023-05-07T07:27:49;15.80;99.90
9215;DHT22;4642;51.364;6.788;2023-05-07T07:30:14;15.80;99.90
9215;DHT22;4642;51.364;6.788;2023-05-07T07:32:40;15.90;99.90
9215;DHT22;4642;51.364;6.788;2023-05-07T07:35:06;15.90;99.90
9215;DHT22;4642;51.364;6.788;2023-05-07T07:37:32;16.00;99.90
9215;DHT22;4642;51.364;6.788;2023-05-07T07:39:57;16.10;99.90
9215;DHT22;4642;51.364;6.788;2023-05-07T07:42:23;16.20;99.90
9215;DHT22;4642;51.364;6.788;2023-05-07T07:44:48;16.20;99.90
9215;DHT22;4642;51.364;6.788;2023-05-07T07:47:14;16.30;99.90
9215;DHT22;4642;51.364;6.788;2023-05-07T07:49:39;16.40;99.90
9215;DHT22;4642;51.364;6.788;2023-05-07T07:52:05;16.50;99.90
9215;DHT22;4642;51.364;6.788;2023-05-07T07:54:31;16.60;99.90
9215;DHT22;4642;51.364;6.788;2023-05-07T07:56:57;16.70;99.90
9215;DHT22;4642;51.364;6.788;2023-05-07T07:59:23;16.80;99.90
9215;DHT22;4642;51.364;6.788;2023-05-07T08:01:48;16.80;99.90
9215;DHT22;4642;51.364;6.788;2023-05-07T08:04:15;17.00;99.90
9215;DHT22;4642;51.364;6.788;2023-05-07T08:06:41;17.10;99.90
9215;DHT22;4642;51.364;6.788;2023-05-07T08:09:07;17.10;99.90
9215;DHT22;4642;51.364;6.788;2023-05-07T08:11:33;17.20;99.90
9215;DHT22;4642;51.364;6.788;2023-05-07T08:13:59;17.30;99.90
9215;DHT22;4642;51.364;6.788;2023-05-07T08:16:25;17.40;99.90
9215;DHT22;4642;51.364;6.788;2023-05-07T08:18:51;17.60;99.90
9215;DHT22;4642;51.364;6.788;2023-05-07T08:21:16;17.70;99.90
9215;DHT22;4642;51.364;6.788;2023-05-07T08:23:42;17.70;99.90
9215;DHT22;4642;51.364;6.788;2023-05-07T08:26:08;17.80;99.90
9215;DHT22;4642;51.364;6.788;2023-05-07T08:28:34;17.80;99.90
9215;DHT22;4642;51.364;6.788;2023-05-07T08:30:59;17.90;99.90
9215;DHT22;4642;51.364;6.788;2023-05-07T08:33:26;18.00;99.90
9215;DHT22;4642;51.364;6.788;2023-05-07T08:35:51;18.00;99.90
9215;DHT22;4642;51.364;6.788;2023-05-07T08:38:17;18.10;99.90
9215;DHT22;4642;51.364;6.788;2023-05-07T08:40:43;18.20;99.90
9215;DHT22;4642;51.364;6.788;2023-05-07T08:43:12;18.30;99.90
9215;DHT22;4642;51.364;6.788;2023-05-07T08:45:39;18.40;99.90
9215;DHT22;4642;51.364;6.788;2023-05-07T08:48:09;18.40;99.90
9215;DHT22;4642;51.364;6.788;2023-05-07T08:50:36;18.50;99.90
9215;DHT22;4642;51.364;6.788;2023-05-07T08:53:05;18.50;99.90
9215;DHT22;4642;51.364;6.788;2023-05-07T08:55:31;18.50;99.90
9215;DHT22;4642;51.364;6.788;2023-05-07T08:57:56;18.50;99.90
9215;DHT22;4642;51.364;6.788;2023-05-07T09:00:22;18.60;99.90
9215;DHT22;4642;51.364;6.788;2023-05-07T09:02:48;18.70;99.90
9215;DHT22;4642;51.364;6.788;2023-05-07T09:05:13;18.70;99.90
9215;DHT22;4642;51.364;6.788;2023-05-07T09:07:39;18.70;99.90
9215;DHT22;4642;51.364;6.788;2023-05-07T09:10:06;18.90;99.90
9215;DHT22;4642;51.364;6.788;2023-05-07T09:12:32;18.90;99.90
9215;DHT22;4642;51.364;6.788;2023-05-07T09:14:59;18.90;99.90
9215;DHT22;4642;51.364;6.788;2023-05-07T09:17:25;18.90;99.90
9215;DHT22;4642;51.364;6.788;2023-05-07T09:19:50;18.90;99.90
9215;DHT22;4642;51.364;6.788;2023-05-07T09:22:16;19.00;99.90
9215;DHT22;4642;51.364;6.788;2023-05-07T09:24:50;19.10;99.90
9215;DHT22;4642;51.364;6.788;2023-05-07T09:27:17;19.20;99.90
9215;DHT22;4642;51.364;6.788;2023-05-07T09:29:43;19.20;99.90
9215;DHT22;4642;51.364;6.788;2023-05-07T09:32:10;19.30;99.90
9215;DHT22;4642;51.364;6.788;2023-05-07T09:34:35;19.30;99.90
9215;DHT22;4642;51.364;6.788;2023-05-07T09:37:02;19.50;99.90
9215;DHT22;4642;51.364;6.788;2023-05-07T09:39:41;19.60;99.90
9215;DHT22;4642;51.364;6.788;2023-05-07T09:42:07;19.70;99.90
9215;DHT22;4642;51.364;6.788;2023-05-07T09:44:34;19.80;1.00
9215;DHT22;4642;51.364;6.788;2023-05-07T09:47:00;20.00;1.00
9215;DHT22;4642;51.364;6.788;2023-05-07T09:49:30;20.10;92.70
9215;DHT22;4642;51.364;6.788;2023-05-07T09:51:59;20.10;1.00
9215;DHT22;4642;51.364;6.788;2023-05-07T09:54:25;20.10;1.00
9215;DHT22;4642;51.364;6.788;2023-05-07T09:56:52;20.10;1.00
9215;DHT22;4642;51.364;6.788;2023-05-07T09:59:20;20.30;99.90
9215;DHT22;4642;51.364;6.788;2023-05-07T10:01:46;20.10;99.90
9215;DHT22;4642;51.364;6.788;2023-05-07T10:04:12;20.20;99.90
9215;DHT22;4642;51.364;6.788;2023-05-07T10:06:38;20.20;99.90
9215;DHT22;4642;51.364;6.788;2023-05-07T10:09:05;20.20;1.00
9215;DHT22;4642;51.364;6.788;2023-05-07T10:11:32;20.30;99.90
9215;DHT22;4642;51.364;6.788;2023-05-07T10:13:59;20.40;99.90
9215;DHT22;4642;51.364;6.788;2023-05-07T10:16:27;20.40;99.90
9215;DHT22;4642;51.364;6.788;2023-05-07T10:18:56;20.50;1.00
9215;DHT22;4642;51.364;6.788;2023-05-07T10:21:23;20.70;1.00
9215;DHT22;4642;51.364;6.788;2023-05-07T10:24:21;20.60;79.00
9215;DHT22;4642;51.364;6.788;2023-05-07T10:26:49;20.70;1.00
9215;DHT22;4642;51.364;6.788;2023-05-07T10:32:42;20.70;27.40
9215;DHT22;4642;51.364;6.788;2023-05-07T10:35:21;20.80;1.00
9215;DHT22;4642;51.364;6.788;2023-05-07T10:37:48;20.90;99.90
9215;DHT22;4642;51.364;6.788;2023-05-07T10:40:14;20.90;1.00
9215;DHT22;4642;51.364;6.788;2023-05-07T10:42:56;21.10;99.90
9215;DHT22;4642;51.364;6.788;2023-05-07T10:45:23;21.20;1.00
9215;DHT22;4642;51.364;6.788;2023-05-07T10:48:12;21.30;99.90
9215;DHT22;4642;51.364;6.788;2023-05-07T10:50:42;21.40;1.00
9215;DHT22;4642;51.364;6.788;2023-05-07T10:58:28;21.60;22.00
9215;DHT22;4642;51.364;6.788;2023-05-07T11:00:57;21.70;32.70
9215;DHT22;4642;51.364;6.788;2023-05-07T11:03:23;21.80;1.00
9215;DHT22;4642;51.364;6.788;2023-05-07T11:06:12;21.70;99.90
9215;DHT22;4642;51.364;6.788;2023-05-07T11:11:18;21.80;19.60
9215;DHT22;4642;51.364;6.788;2023-05-07T11:13:48;21.80;99.90
9215;DHT22;4642;51.364;6.788;2023-05-07T11:16:22;21.80;99.90
9215;DHT22;4642;51.364;6.788;2023-05-07T11:18:55;21.80;1.00
9215;DHT22;4642;51.364;6.788;2023-05-07T11:21:38;21.80;1.00
9215;DHT22;4642;51.364;6.788;2023-05-07T11:24:06;21.90;1.00
9215;DHT22;4642;51.364;6.788;2023-05-07T11:26:43;21.70;1.00
9215;DHT22;4642;51.364;6.788;2023-05-07T11:29:17;21.80;99.90
9215;DHT22;4642;51.364;6.788;2023-05-07T11:31:42;21.80;99.90
9215;DHT22;4642;51.364;6.788;2023-05-07T11:34:08;21.80;99.90
9215;DHT22;4642;51.364;6.788;2023-05-07T11:36:34;21.80;9.10
9215;DHT22;4642;51.364;6.788;2023-05-07T11:39:00;21.80;1.00
9215;DHT22;4642;51.364;6.788;2023-05-07T11:41:36;21.80;99.90
9215;DHT22;4642;51.364;6.788;2023-05-07T11:44:02;21.80;1.00
9215;DHT22;4642;51.364;6.788;2023-05-07T11:46:28;21.70;1.00
9215;DHT22;4642;51.364;6.788;2023-05-07T11:48:55;21.70;99.90
9215;DHT22;4642;51.364;6.788;2023-05-07T11:51:24;21.50;1.00
9215;DHT22;4642;51.364;6.788;2023-05-07T11:53:51;21.50;99.90
9215;DHT22;4642;51.364;6.788;2023-05-07T11:56:18;21.50;99.90
9215;DHT22;4642;51.364;6.788;2023-05-07T11:58:46;21.50;99.90
9215;DHT22;4642;51.364;6.788;2023-05-07T12:01:13;21.50;7.50
9215;DHT22;4642;51.364;6.788;2023-05-07T12:03:43;21.50;99.90
9215;DHT22;4642;51.364;6.788;2023-05-07T12:06:09;21.40;1.00
9215;DHT22;4642;51.364;6.788;2023-05-07T12:08:37;21.50;1.00
9215;DHT22;4642;51.364;6.788;2023-05-07T12:11:03;21.50;1.00
9215;DHT22;4642;51.364;6.788;2023-05-07T12:13:32;21.60;1.00
9215;DHT22;4642;51.364;6.788;2023-05-07T12:15:57;21.50;57.60
9215;DHT22;4642;51.364;6.788;2023-05-07T12:18:23;21.50;99.90
9215;DHT22;4642;51.364;6.788;2023-05-07T12:20:49;21.50;99.90
9215;DHT22;4642;51.364;6.788;2023-05-07T12:23:16;21.60;1.00
9215;DHT22;4642;51.364;6.788;2023-05-07T12:25:43;21.50;99.90
9215;DHT22;4642;51.364;6.788;2023-05-07T12:28:21;21.60;1.00
9215;DHT22;4642;51.364;6.788;2023-05-07T12:30:48;21.50;99.90
9215;DHT22;4642;51.364;6.788;2023-05-07T12:33:18;21.40;99.90
9215;DHT22;4642;51.364;6.788;2023-05-07T12:39:12;21.30;1.00
9215;DHT22;4642;51.364;6.788;2023-05-07T12:41:58;21.30;99.90
9215;DHT22;4642;51.364;6.788;2023-05-07T12:44:34;21.20;99.90
9215;DHT22;4642;51.364;6.788;2023-05-07T12:47:03;21.20;99.90
9215;DHT22;4642;51.364;6.788;2023-05-07T12:49:28;21.20;99.90
9215;DHT22;4642;51.364;6.788;2023-05-07T12:51:54;21.30;1.00
9215;DHT22;4642;51.364;6.788;2023-05-07T12:54:33;21.10;99.90
9215;DHT22;4642;51.364;6.788;2023-05-07T12:57:06;21.20;1.00
9215;DHT22;4642;51.364;6.788;2023-05-07T12:59:36;21.20;1.00
9215;DHT22;4642;51.364;6.788;2023-05-07T13:02:02;21.20;1.00
9215;DHT22;4642;51.364;6.788;2023-05-07T13:04:27;21.20;20.50
9215;DHT22;4642;51.364;6.788;2023-05-07T13:06:53;21.10;1.00
9215;DHT22;4642;51.364;6.788;2023-05-07T13:09:19;21.10;99.90
9215;DHT22;4642;51.364;6.788;2023-05-07T13:11:44;21.00;1.00
9215;DHT22;4642;51.364;6.788;2023-05-07T13:14:10;21.00;99.90
9215;DHT22;4642;51.364;6.788;2023-05-07T13:16:35;20.90;1.00
9215;DHT22;4642;51.364;6.788;2023-05-07T13:19:01;20.90;1.00
9215;DHT22;4642;51.364;6.788;2023-05-07T13:21:27;20.90;1.00
9215;DHT22;4642;51.364;6.788;2023-05-07T13:23:52;20.80;1.00
9215;DHT22;4642;51.364;6.788;2023-05-07T13:26:18;20.80;1.00
9215;DHT22;4642;51.364;6.788;2023-05-07T13:28:44;20.70;1.00
9215;DHT22;4642;51.364;6.788;2023-05-07T13:31:09;20.80;1.00
9215;DHT22;4642;51.364;6.788;2023-05-07T13:33:35;20.90;99.90
9215;DHT22;4642;51.364;6.788;2023-05-07T13:36:01;20.80;1.00
9215;DHT22;4642;51.364;6.788;2023-05-07T13:38:29;20.80;1.00
9215;DHT22;4642;51.364;6.788;2023-05-07T13:40:54;20.80;1.00
9215;DHT22;4642;51.364;6.788;2023-05-07T13:43:20;20.70;99.90
9215;DHT22;4642;51.364;6.788;2023-05-07T13:45:45;20.70;99.90
9215;DHT22;4642;51.364;6.788;2023-05-07T13:48:11;20.60;1.00
9215;DHT22;4642;51.364;6.788;2023-05-07T13:50:37;20.70;99.90
9215;DHT22;4642;51.364;6.788;2023-05-07T13:53:02;20.50;1.00
9215;DHT22;4642;51.364;6.788;2023-05-07T13:55:28;20.40;1.00
9215;DHT22;4642;51.364;6.788;2023-05-07T13:57:56;20.30;1.00
9215;DHT22;4642;51.364;6.788;2023-05-07T14:00:23;20.40;1.00
9215;DHT22;4642;51.364;6.788;2023-05-07T14:02:49;20.20;1.00
9215;DHT22;4642;51.364;6.788;2023-05-07T14:05:14;20.10;1.00
9215;DHT22;4642;51.364;6.788;2023-05-07T14:07:40;20.00;1.00
9215;DHT22;4642;51.364;6.788;2023-05-07T14:10:06;19.90;28.90
9215;DHT22;4642;51.364;6.788;2023-05-07T14:12:32;20.00;1.00
9215;DHT22;4642;51.364;6.788;2023-05-07T14:14:58;19.90;99.90
9215;DHT22;4642;51.364;6.788;2023-05-07T14:17:23;19.90;99.90
9215;DHT22;4642;51.364;6.788;2023-05-07T14:19:51;19.90;99.90
9215;DHT22;4642;51.364;6.788;2023-05-07T14:22:23;19.90;1.00
9215;DHT22;4642;51.364;6.788;2023-05-07T14:24:49;19.90;1.00
9215;DHT22;4642;51.364;6.788;2023-05-07T14:27:15;20.00;1.00
9215;DHT22;4642;51.364;6.788;2023-05-07T14:29:40;19.90;99.90
9215;DHT22;4642;51.364;6.788;2023-05-07T14:32:06;19.90;1.00
9215;DHT22;4642;51.364;6.788;2023-05-07T14:34:32;19.90;1.00
9215;DHT22;4642;51.364;6.788;2023-05-07T14:36:59;19.90;1.00
9215;DHT22;4642;51.364;6.788;2023-05-07T14:39:25;19.90;1.00
9215;DHT22;4642;51.364;6.788;2023-05-07T14:41:51;20.00;99.90
9215;DHT22;4642;51.364;6.788;2023-05-07T14:44:16;20.00;1.00
9215;DHT22;4642;51.364;6.788;2023-05-07T14:46:42;20.00;99.90
9215;DHT22;4642;51.364;6.788;2023-05-07T14:49:07;19.90;99.90
9215;DHT22;4642;51.364;6.788;2023-05-07T14:51:41;20.00;1.00
9215;DHT22;4642;51.364;6.788;2023-05-07T14:54:07;20.10;99.90
9215;DHT22;4642;51.364;6.788;2023-05-07T14:56:34;20.10;99.90
9215;DHT22;4642;51.364;6.788;2023-05-07T14:59:00;20.00;99.90
9215;DHT22;4642;51.364;6.788;2023-05-07T15:01:26;20.00;99.90
9215;DHT22;4642;51.364;6.788;2023-05-07T15:03:51;20.00;99.90
9215;DHT22;4642;51.364;6.788;2023-05-07T15:06:17;20.00;99.90
9215;DHT22;4642;51.364;6.788;2023-05-07T15:08:42;19.90;99.90
9215;DHT22;4642;51.364;6.788;2023-05-07T15:11:08;19.90;99.90
9215;DHT22;4642;51.364;6.788;2023-05-07T15:13:33;19.80;1.00
9215;DHT22;4642;51.364;6.788;2023-05-07T15:15:59;19.80;1.00
9215;DHT22;4642;51.364;6.788;2023-05-07T15:18:25;19.70;1.00
9215;DHT22;4642;51.364;6.788;2023-05-07T15:20:51;20.00;1.00
9215;DHT22;4642;51.364;6.788;2023-05-07T15:23:16;19.60;1.00
9215;DHT22;4642;51.364;6.788;2023-05-07T15:25:42;19.60;1.00
9215;DHT22;4642;51.364;6.788;2023-05-07T15:28:07;19.60;1.00
9215;DHT22;4642;51.364;6.788;2023-05-07T15:30:33;19.50;1.00
9215;DHT22;4642;51.364;6.788;2023-05-07T15:33:00;19.50;1.00
9215;DHT22;4642;51.364;6.788;2023-05-07T15:35:25;19.50;9.60
9215;DHT22;4642;51.364;6.788;2023-05-07T15:37:51;19.40;1.00
9215;DHT22;4642;51.364;6.788;2023-05-07T15:40:20;19.30;7.30
9215;DHT22;4642;51.364;6.788;2023-05-07T15:42:46;19.30;7.30
9215;DHT22;4642;51.364;6.788;2023-05-07T15:45:12;19.30;41.40
9215;DHT22;4642;51.364;6.788;2023-05-07T15:47:37;19.30;68.90
9215;DHT22;4642;51.364;6.788;2023-05-07T15:50:03;19.30;99.90
9215;DHT22;4642;51.364;6.788;2023-05-07T15:52:29;19.20;99.90
9215;DHT22;4642;51.364;6.788;2023-05-07T15:54:56;19.10;99.90
9215;DHT22;4642;51.364;6.788;2023-05-07T15:57:22;19.20;99.90
9215;DHT22;4642;51.364;6.788;2023-05-07T15:59:48;19.20;99.90
9215;DHT22;4642;51.364;6.788;2023-05-07T16:02:13;19.20;99.90
9215;DHT22;4642;51.364;6.788;2023-05-07T16:04:39;19.20;99.90
9215;DHT22;4642;51.364;6.788;2023-05-07T16:07:05;19.30;99.90
9215;DHT22;4642;51.364;6.788;2023-05-07T16:09:32;19.30;99.90
9215;DHT22;4642;51.364;6.788;2023-05-07T16:11:59;19.30;99.90
9215;DHT22;4642;51.364;6.788;2023-05-07T16:14:25;19.30;99.90
9215;DHT22;4642;51.364;6.788;2023-05-07T16:16:51;19.20;99.90